Time;durP1;ratioP1;P1;durP2;ratioP2;P2;SDS_P1;SDS_P2;PMS_P1;PMS_P2;Temp;Humidity;BMP_temperature;BMP_pressure;BME280_temperature;BME280_humidity;BME280_pressure;Samples;Min_cycle;Max_cycle;Signal;HPM_P1;HPM_P2
2022/12/04 00:01:25;;;;;;;;;29.33;24.00;;;;;4.08;100.00;100623.03;6312866;22;46910;-82
2022/12/04 00:03:58;;;;;;;;;28.33;24.67;;;;;4.12;100.00;100619.66;6316566;22;45338;-82
2022/12/04 00:06:26;;;;;;;;;28.00;24.00;;;;;4.11;100.00;100609.97;6316017;22;45465;-82
2022/12/04 00:08:52;;;;;;;;;23.67;20.67;;;;;4.16;100.00;100618.94;6313856;22;45661;-81
2022/12/04 00:11:23;;;;;;;;;30.00;26.00;;;;;4.15;100.00;100610.97;6316066;22;45329;-82
2022/12/04 00:13:49;;;;;;;;;32.33;29.33;;;;;4.17;100.00;100609.31;6316393;22;45367;-81
2022/12/04 00:16:21;;;;;;;;;25.00;25.00;;;;;4.17;100.00;100625.09;6317023;22;45374;-82
2022/12/04 00:19:32;;;;;;;;;25.33;24.33;;;;;4.07;100.00;100615.94;6311944;22;45427;-82
2022/12/04 00:21:57;;;;;;;;;32.67;31.33;;;;;4.03;100.00;100607.88;6284099;22;47178;-81
2022/12/04 00:24:23;;;;;;;;;32.33;29.33;;;;;4.03;100.00;100619.31;6285245;22;45794;-82
2022/12/04 00:26:48;;;;;;;;;28.33;27.00;;;;;4.01;100.00;100605.19;6283927;22;45484;-81
2022/12/04 00:29:13;;;;;;;;;24.33;17.00;;;;;3.98;100.00;100600.72;6285037;22;45231;-81
2022/12/04 00:35:02;;;;;;;;;34.33;31.00;;;;;4.06;100.00;100613.25;6287985;22;45344;-83
2022/12/04 00:37:27;;;;;;;;;34.00;29.67;;;;;4.07;100.00;100604.53;6288750;22;45273;-82
2022/12/04 00:39:53;;;;;;;;;33.33;30.00;;;;;4.06;100.00;100603.66;6287528;22;45304;-81
2022/12/04 00:42:19;;;;;;;;;32.67;28.67;;;;;3.97;100.00;100593.63;6287522;22;45052;-81
2022/12/04 00:44:44;;;;;;;;;27.67;24.00;;;;;4.03;100.00;100602.63;6289580;22;45270;-81
2022/12/04 00:47:10;;;;;;;;;20.00;17.00;;;;;4.01;100.00;100615.72;6284055;22;45294;-82
2022/12/04 00:49:35;;;;;;;;;26.00;25.33;;;;;3.99;100.00;100606.88;6285826;22;45168;-82
2022/12/04 00:52:00;;;;;;;;;27.33;20.33;;;;;3.98;100.00;100595.44;6283467;22;48138;-83
2022/12/04 00:54:26;;;;;;;;;28.33;26.00;;;;;3.94;100.00;100593.53;6286633;22;45282;-82
2022/12/04 00:56:51;;;;;;;;;26.33;23.00;;;;;3.96;100.00;100598.88;6287051;22;45340;-83
2022/12/04 00:59:16;;;;;;;;;27.33;22.33;;;;;3.92;100.00;100596.94;6287005;22;45324;-82
2022/12/04 01:01:42;;;;;;;;;25.67;25.00;;;;;3.98;100.00;100600.72;6283053;22;47364;-83
2022/12/04 01:07:29;;;;;;;;;22.67;21.67;;;;;3.93;100.00;100597.00;6285138;22;45302;-82
2022/12/04 01:09:55;;;;;;;;;28.67;23.00;;;;;3.96;100.00;100590.97;6285024;22;44793;-83
2022/12/04 01:12:21;;;;;;;;;18.00;18.00;;;;;4.03;100.00;100587.72;6279211;22;46597;-82
2022/12/04 01:14:46;;;;;;;;;28.67;26.00;;;;;4.01;100.00;100589.41;6310306;22;45317;-83
2022/12/04 01:17:12;;;;;;;;;30.67;30.33;;;;;3.97;100.00;100598.00;6285615;22;44749;-82
2022/12/04 01:19:37;;;;;;;;;31.00;29.00;;;;;3.99;100.00;100602.50;6295429;22;45684;-82
2022/12/04 01:22:03;;;;;;;;;36.00;26.00;;;;;3.90;100.00;100593.34;6316671;22;47075;-82
2022/12/04 01:24:28;;;;;;;;;32.67;24.33;;;;;3.93;100.00;100597.00;6345988;22;45364;-82
2022/12/04 01:26:55;;;;;;;;;38.33;28.33;;;;;3.90;100.00;100598.59;6345135;22;45407;-82
2022/12/04 01:29:21;;;;;;;;;24.33;22.67;;;;;3.91;100.00;100590.78;6346986;22;45426;-81
2022/12/04 01:31:46;;;;;;;;;30.67;28.00;;;;;3.98;100.00;100597.19;6348094;22;45406;-81
2022/12/04 01:34:11;;;;;;;;;24.67;20.33;;;;;3.93;100.00;100590.84;6318162;22;45643;-82
2022/12/04 01:36:37;;;;;;;;;30.33;24.33;;;;;3.90;100.00;100582.81;6317810;22;45418;-81
2022/12/04 01:39:03;;;;;;;;;32.67;26.67;;;;;3.80;100.00;100563.19;6345795;22;45337;-81
2022/12/04 01:41:30;;;;;;;;;25.00;18.67;;;;;3.94;100.00;100587.38;6316114;22;48263;-82
2022/12/04 01:44:25;;;;;;;;;25.67;23.67;;;;;3.94;100.00;100579.50;6317318;22;45346;-81
2022/12/04 01:46:59;;;;;;;;;23.67;23.67;;;;;3.95;100.00;100581.28;6283736;22;45395;-82
2022/12/04 01:49:46;;;;;;;;;29.33;26.67;;;;;3.96;100.00;100585.72;6315614;22;45821;-81
2022/12/04 01:52:21;;;;;;;;;28.33;28.00;;;;;3.91;100.00;100585.50;6316232;22;48107;-81
2022/12/04 01:54:50;;;;;;;;;25.33;23.00;;;;;3.95;100.00;100597.06;6343626;22;45301;-80
2022/12/04 01:57:22;;;;;;;;;25.33;23.67;;;;;3.96;100.00;100589.22;6317249;22;45297;-81
2022/12/04 01:59:59;;;;;;;;;31.33;26.00;;;;;3.96;100.00;100590.97;6345495;22;45285;-81
2022/12/04 02:02:37;;;;;;;;;29.33;25.00;;;;;3.99;100.00;100598.97;6347948;22;45403;-81
2022/12/04 02:05:05;;;;;;;;;35.33;28.33;;;;;4.01;100.00;100587.66;6348643;22;45324;-82
2022/12/04 02:07:31;;;;;;;;;39.00;37.00;;;;;4.04;100.00;100593.88;6318078;22;45448;-81
2022/12/04 02:10:02;;;;;;;;;36.67;32.67;;;;;4.01;100.00;100584.13;6293583;22;45271;-82
2022/12/04 02:12:37;;;;;;;;;25.00;24.67;;;;;4.09;100.00;100595.84;6321750;22;45281;-83
2022/12/04 02:18:39;;;;;;;;;26.33;24.33;;;;;4.12;100.00;100592.44;6350705;22;45419;-83
2022/12/04 02:21:07;;;;;;;;;31.33;28.33;;;;;4.12;100.00;100589.78;6316010;22;45441;-83
2022/12/04 02:24:01;;;;;;;;;37.33;32.00;;;;;4.08;100.00;100598.41;6318471;22;47102;-84
2022/12/04 02:26:29;;;;;;;;;26.33;25.00;;;;;4.06;100.00;100593.13;6316424;22;45392;-83
2022/12/04 02:29:01;;;;;;;;;38.33;31.33;;;;;4.02;100.00;100591.22;6319050;22;45321;-83
2022/12/04 02:31:33;;;;;;;;;29.67;29.67;;;;;3.97;100.00;100584.84;6320855;22;45348;-83
2022/12/04 02:34:09;;;;;;;;;33.67;28.67;;;;;3.98;100.00;100597.19;6319666;22;45440;-83
2022/12/04 02:36:54;;;;;;;;;30.67;26.67;;;;;3.94;100.00;100592.66;6318304;22;45293;-83
2022/12/04 02:40:12;;;;;;;;;36.33;30.33;;;;;3.94;100.00;100600.53;6320372;22;45277;-82
2022/12/04 02:42:44;;;;;;;;;30.67;27.00;;;;;3.93;100.00;100593.47;6322168;22;45361;-82
2022/12/04 02:45:32;;;;;;;;;17.67;16.67;;;;;3.99;100.00;100588.44;6318584;22;45301;-82
2022/12/04 02:48:01;;;;;;;;;41.50;34.00;;;;;4.09;100.00;100587.06;6322116;22;45388;-82
2022/12/04 02:50:29;;;;;;;;;36.33;32.33;;;;;4.09;100.00;100582.69;6318992;22;44786;-82
2022/12/04 02:53:18;;;;;;;;;28.67;26.33;;;;;4.12;100.00;100585.44;6320137;22;45691;-82
2022/12/04 02:55:51;;;;;;;;;29.33;27.67;;;;;4.13;100.00;100574.06;6320326;22;45402;-82
2022/12/04 02:58:43;;;;;;;;;37.67;31.33;;;;;4.17;100.00;100580.34;6319119;22;44682;-83
2022/12/04 03:01:19;;;;;;;;;33.33;30.00;;;;;4.10;100.00;100568.72;6320693;22;45363;-82
2022/12/04 03:04:08;;;;;;;;;41.67;33.33;;;;;4.10;100.00;100589.75;6319819;22;45167;-82
2022/12/04 03:06:37;;;;;;;;;35.00;29.33;;;;;4.09;100.00;100584.44;6321527;22;46083;-82
2022/12/04 03:09:32;;;;;;;;;36.00;32.00;;;;;4.16;100.00;100595.25;6319359;22;44723;-83
2022/12/04 03:12:07;;;;;;;;;31.67;31.67;;;;;4.15;100.00;100577.66;6318451;22;44779;-82
2022/12/04 03:14:38;;;;;;;;;32.00;28.67;;;;;4.13;100.00;100574.06;6321234;22;45214;-83
2022/12/04 03:17:19;;;;;;;;;39.33;36.33;;;;;4.21;100.00;100577.88;6319841;22;45402;-81
2022/12/04 03:19:50;;;;;;;;;37.33;29.33;;;;;4.20;100.00;100576.09;6323785;22;45246;-82
2022/12/04 03:22:18;;;;;;;;;32.00;27.00;;;;;4.07;100.00;100546.63;6323350;22;45325;-82
2022/12/04 03:24:53;;;;;;;;;33.67;31.67;;;;;4.21;100.00;100574.34;6352524;22;44739;-81
2022/12/04 03:27:34;;;;;;;;;30.67;26.00;;;;;4.26;100.00;100570.13;6323800;22;48587;-82
2022/12/04 03:30:10;;;;;;;;;43.00;33.33;;;;;4.26;100.00;100564.00;6325018;22;45361;-82
2022/12/04 03:33:03;;;;;;;;;31.67;30.00;;;;;4.31;100.00;100562.44;6325661;22;45344;-82
2022/12/04 03:36:10;;;;;;;;;38.00;30.33;;;;;4.33;100.00;100566.03;6324779;22;45405;-82
2022/12/04 03:38:50;;;;;;;;;46.00;40.00;;;;;4.33;100.00;100563.38;6200544;22;46710;-82
2022/12/04 03:41:47;;;;;;;;;31.67;28.00;;;;;4.30;100.00;100550.09;6198164;22;45396;-81
2022/12/04 03:44:37;;;;;;;;;32.67;27.67;;;;;4.31;100.00;100554.53;6226818;22;45342;-82
2022/12/04 03:47:10;;;;;;;;;40.33;31.00;;;;;4.20;100.00;100541.88;6198814;22;45478;-82
2022/12/04 03:49:54;;;;;;;;;34.00;30.67;;;;;4.25;100.00;100551.69;6223945;22;46432;-83
2022/12/04 03:52:28;;;;;;;;;38.00;33.33;;;;;4.17;100.00;100539.13;6199122;22;45445;-82
2022/12/04 03:55:00;;;;;;;;;36.00;34.00;;;;;4.11;100.00;100541.53;6198835;22;45720;-81
2022/12/04 03:57:32;;;;;;;;;35.00;33.00;;;;;4.12;100.00;100555.59;6223496;22;45308;-82
2022/12/04 04:00:09;;;;;;;;;40.67;36.00;;;;;4.06;100.00;100529.97;6222164;22;45383;-82
2022/12/04 04:02:49;;;;;;;;;39.67;36.00;;;;;4.11;100.00;100525.75;6224957;22;45386;-82
2022/12/04 04:05:17;;;;;;;;;46.00;36.33;;;;;4.11;100.00;100523.13;6225478;22;44758;-83
2022/12/04 04:07:48;;;;;;;;;41.00;37.67;;;;;4.05;100.00;100500.94;6226520;22;44765;-82
2022/12/04 04:10:18;;;;;;;;;37.00;25.33;;;;;4.10;100.00;100497.66;6224121;22;45484;-83
2022/12/04 04:24:17;;;;;;;;;38.00;35.67;;;;;4.18;100.00;100477.75;6353225;22;45118;-82
2022/12/04 04:26:46;;;;;;;;;32.00;28.67;;;;;4.18;100.00;100482.09;6324588;22;46052;-82
2022/12/04 04:29:12;;;;;;;;;36.67;29.33;;;;;4.13;100.00;100476.69;6324859;22;45253;-82
2022/12/04 04:32:11;;;;;;;;;39.33;36.67;;;;;4.12;100.00;100472.28;6326520;22;45472;-82
2022/12/04 04:35:00;;;;;;;;;33.67;28.33;;;;;4.15;100.00;100493.44;6323562;22;45373;-83
2022/12/04 04:37:50;;;;;;;;;33.33;31.00;;;;;4.18;100.00;100503.16;6302300;22;45317;-83
2022/12/04 04:40:57;;;;;;;;;35.33;30.67;;;;;4.18;100.00;100493.56;6324283;22;45389;-82
2022/12/04 04:43:34;;;;;;;;;33.67;30.67;;;;;4.10;100.00;100489.75;6352557;22;45443;-83
2022/12/04 04:46:10;;;;;;;;;37.33;31.67;;;;;4.16;100.00;100505.78;6325266;22;45397;-83
2022/12/04 04:48:42;;;;;;;;;39.33;33.00;;;;;4.03;100.00;100476.31;6353685;22;44772;-83
2022/12/04 04:51:09;;;;;;;;;35.67;30.33;;;;;4.11;100.00;100488.00;6326161;22;45530;-83
2022/12/04 04:56:56;;;;;;;;;36.67;32.67;;;;;4.09;100.00;100466.91;6353438;22;45325;-81
2022/12/04 04:59:22;;;;;;;;;34.67;33.00;;;;;4.23;100.00;100482.28;6353089;22;45305;-82
2022/12/04 05:01:47;;;;;;;;;40.33;36.67;;;;;4.29;100.00;100511.47;6325156;22;45531;-83
2022/12/04 05:04:13;;;;;;;;;39.67;34.67;;;;;4.25;100.00;100502.56;6325609;22;48074;-83
2022/12/04 05:06:39;;;;;;;;;32.33;32.33;;;;;4.20;100.00;100497.13;6322827;22;45398;-83
2022/12/04 05:09:04;;;;;;;;;31.33;28.67;;;;;4.08;100.00;100486.19;6322950;22;45313;-83
2022/12/04 05:11:30;;;;;;;;;45.33;36.33;;;;;4.14;100.00;100501.25;6322651;22;45307;-83
2022/12/04 05:13:57;;;;;;;;;37.33;35.33;;;;;4.16;100.00;100500.50;6350685;22;45474;-84
2022/12/04 05:16:23;;;;;;;;;44.33;35.67;;;;;4.16;100.00;100508.41;6322821;22;45376;-83
2022/12/04 05:21:34;;;;;;;;;39.00;33.33;;;;;4.10;100.00;100502.91;6347876;22;45309;-83
2022/12/04 05:24:03;;;;;;;;;39.33;34.67;;;;;4.14;100.00;100507.44;6350861;22;45247;-82
2022/12/04 05:26:28;;;;;;;;;35.33;30.33;;;;;4.18;100.00;100504.09;6322234;22;45673;-83
2022/12/04 05:28:54;;;;;;;;;31.33;28.67;;;;;4.25;100.00;100504.31;6321887;22;45301;-83
2022/12/04 05:31:21;;;;;;;;;38.00;29.67;;;;;4.20;100.00;100497.13;6322545;22;45321;-83
2022/12/04 05:33:46;;;;;;;;;30.00;28.00;;;;;4.23;100.00;100500.72;6321661;22;46889;-82
2022/12/04 05:36:12;;;;;;;;;40.00;36.00;;;;;4.26;100.00;100511.34;6321654;22;45323;-82
2022/12/04 05:38:37;;;;;;;;;35.00;31.67;;;;;4.20;100.00;100504.13;6352070;22;45401;-82
2022/12/04 05:41:05;;;;;;;;;42.33;38.33;;;;;4.24;100.00;100502.50;6322159;22;45339;-83
2022/12/04 05:43:31;;;;;;;;;43.33;35.67;;;;;4.25;100.00;100517.47;6349553;22;45201;-83
2022/12/04 05:46:04;;;;;;;;;29.67;24.67;;;;;4.19;100.00;100520.75;6350060;22;45371;-84
2022/12/04 05:48:30;;;;;;;;;40.67;39.67;;;;;4.14;100.00;100533.78;6323466;22;45657;-82
2022/12/04 05:51:03;;;;;;;;;33.33;30.67;;;;;4.11;100.00;100541.53;6322305;22;45247;-82
2022/12/04 05:53:28;;;;;;;;;37.00;32.67;;;;;4.13;100.00;100546.88;6349357;22;45362;-83
2022/12/04 05:55:58;;;;;;;;;44.00;36.33;;;;;4.06;100.00;100535.22;6321425;22;45789;-83
2022/12/04 05:58:24;;;;;;;;;43.00;38.00;;;;;4.11;100.00;100533.63;6322105;22;45320;-83
2022/12/04 06:00:51;;;;;;;;;42.33;33.67;;;;;4.17;100.00;100551.41;6322092;22;45364;-81
2022/12/04 06:03:16;;;;;;;;;35.67;30.00;;;;;4.24;100.00;100541.97;6349861;22;45434;-82
2022/12/04 06:05:42;;;;;;;;;39.00;36.33;;;;;4.20;100.00;100534.00;6350040;22;45314;-82
2022/12/04 06:08:15;;;;;;;;;35.33;33.33;;;;;4.25;100.00;100549.94;6321320;22;45431;-81
2022/12/04 06:10:40;;;;;;;;;35.33;31.00;;;;;4.22;100.00;100541.91;6349667;22;45411;-81
2022/12/04 06:13:06;;;;;;;;;34.00;24.67;;;;;4.24;100.00;100549.88;6320717;22;47380;-83
2022/12/04 06:15:38;;;;;;;;;35.33;31.67;;;;;4.21;100.00;100562.09;6321786;22;45396;-83
2022/12/04 06:18:04;;;;;;;;;42.00;39.33;;;;;4.21;100.00;100555.94;6350773;22;45489;-83
2022/12/04 06:20:30;;;;;;;;;38.33;35.67;;;;;4.21;100.00;100556.81;6347825;22;45344;-84
2022/12/04 06:22:55;;;;;;;;;41.00;33.33;;;;;4.18;100.00;100537.38;6350764;22;44952;-82
2022/12/04 06:25:24;;;;;;;;;37.00;33.00;;;;;4.13;100.00;100512.66;6351427;22;44881;-83
2022/12/04 06:27:50;;;;;;;;;37.33;28.67;;;;;4.17;100.00;100536.50;6350253;22;45346;-81
2022/12/04 06:30:16;;;;;;;;;18.67;16.33;;;;;4.14;100.00;100541.66;6348692;22;45236;-81
2022/12/04 06:32:41;;;;;;;;;43.00;39.67;;;;;4.18;100.00;100546.19;6348427;22;45329;-82
2022/12/04 06:35:07;;;;;;;;;41.33;33.33;;;;;4.13;100.00;100521.44;6321593;22;44787;-81
2022/12/04 06:37:33;;;;;;;;;44.33;39.67;;;;;4.13;100.00;100515.28;6323779;22;45316;-82
2022/12/04 06:39:59;;;;;;;;;37.33;36.67;;;;;4.23;100.00;100538.47;6323745;22;45279;-82
2022/12/04 06:42:24;;;;;;;;;41.67;37.33;;;;;4.19;100.00;100547.09;6321654;22;47256;-83
2022/12/04 06:44:50;;;;;;;;;38.33;33.00;;;;;4.23;100.00;100540.22;6322369;22;45563;-83
2022/12/04 06:47:16;;;;;;;;;30.67;28.00;;;;;4.23;100.00;100542.84;6320758;22;45302;-83
2022/12/04 06:49:41;;;;;;;;;28.00;20.67;;;;;4.24;100.00;100558.66;6349943;22;45376;-83
2022/12/04 06:52:06;;;;;;;;;46.33;37.67;;;;;4.25;100.00;100570.13;6349784;22;45402;-83
2022/12/04 06:54:32;;;;;;;;;43.00;39.67;;;;;4.17;100.00;100554.91;6321676;22;45420;-82
2022/12/04 06:56:58;;;;;;;;;50.00;37.33;;;;;4.18;100.00;100548.81;6323004;22;45386;-82
2022/12/04 06:59:23;;;;;;;;;39.00;32.00;;;;;4.25;100.00;100560.47;6349432;22;45617;-83
2022/12/04 07:01:49;;;;;;;;;31.33;28.67;;;;;4.19;100.00;100555.88;6350633;22;45359;-82
2022/12/04 07:04:14;;;;;;;;;42.00;37.33;;;;;4.13;100.00;100546.88;6322403;22;45606;-82
2022/12/04 07:06:41;;;;;;;;;27.33;22.67;;;;;4.13;100.00;100545.13;6322808;22;45386;-81
2022/12/04 07:09:15;;;;;;;;;41.67;38.00;;;;;4.12;100.00;100542.41;6353364;22;45287;-82
2022/12/04 07:11:42;;;;;;;;;42.00;36.33;;;;;4.20;100.00;100555.03;6325762;22;45294;-81
2022/12/04 07:14:09;;;;;;;;;45.00;36.00;;;;;4.19;100.00;100557.63;6326702;22;45311;-81
2022/12/04 07:16:35;;;;;;;;;33.00;32.33;;;;;4.20;100.00;100555.03;6327240;22;45335;-82
2022/12/04 07:19:00;;;;;;;;;36.67;35.00;;;;;4.11;100.00;100532.75;6351679;22;45236;-82
2022/12/04 07:21:28;;;;;;;;;39.00;36.00;;;;;4.27;100.00;100565.78;6349092;22;45224;-82
2022/12/04 07:23:56;;;;;;;;;45.33;35.33;;;;;4.21;100.00;100550.66;6351561;22;45359;-82
2022/12/04 07:26:23;;;;;;;;;49.67;37.67;;;;;4.29;100.00;100567.63;6325014;22;44771;-82
2022/12/04 07:28:49;;;;;;;;;50.00;40.67;;;;;4.26;100.00;100566.63;6324901;22;45290;-83
2022/12/04 07:31:21;;;;;;;;;41.67;38.33;;;;;4.28;100.00;100570.19;6323566;22;47916;-82
2022/12/04 07:33:47;;;;;;;;;40.00;34.33;;;;;4.25;100.00;100562.22;6324339;22;46096;-83
2022/12/04 07:36:18;;;;;;;;;45.33;33.67;;;;;4.30;100.00;100573.78;6323383;22;45432;-81
2022/12/04 07:38:44;;;;;;;;;48.67;40.33;;;;;4.27;100.00;100566.69;6324851;22;45278;-84
2022/12/04 07:41:12;;;;;;;;;40.33;33.33;;;;;4.28;100.00;100568.50;6352426;22;45357;-81
2022/12/04 07:43:38;;;;;;;;;43.00;37.00;;;;;4.31;100.00;100571.22;6323574;22;45345;-81
2022/12/04 07:46:10;;;;;;;;;42.00;38.00;;;;;4.24;100.00;100556.03;6324055;22;45351;-82
2022/12/04 07:48:36;;;;;;;;;44.33;40.33;;;;;4.25;100.00;100571.00;6352022;22;45331;-82
2022/12/04 07:54:24;;;;;;;;;48.00;40.00;;;;;4.22;100.00;100562.97;6351639;22;45396;-81
2022/12/04 07:56:49;;;;;;;;;39.00;35.33;;;;;4.21;100.00;100567.34;6321895;22;45293;-83
2022/12/04 07:59:15;;;;;;;;;45.33;40.67;;;;;4.20;100.00;100557.69;6323118;22;45287;-82
2022/12/04 08:01:40;;;;;;;;;45.33;40.00;;;;;4.24;100.00;100544.63;6322010;22;47205;-82
2022/12/04 08:04:06;;;;;;;;;46.67;39.67;;;;;4.27;100.00;100548.25;6320308;22;45218;-83
2022/12/04 08:06:33;;;;;;;;;46.67;37.00;;;;;4.31;100.00;100549.28;6322989;22;45353;-83
2022/12/04 08:08:59;;;;;;;;;35.67;33.33;;;;;4.28;100.00;100546.50;6351459;22;45342;-83
2022/12/04 08:11:27;;;;;;;;;42.67;35.00;;;;;4.35;100.00;100549.44;6350114;22;45332;-81
2022/12/04 08:13:58;;;;;;;;;48.67;39.33;;;;;4.33;100.00;100547.59;6325245;22;45517;-82
2022/12/04 08:16:24;;;;;;;;;47.33;40.00;;;;;4.41;100.00;100565.44;6325801;22;45387;-82
2022/12/04 08:18:50;;;;;;;;;42.67;40.00;;;;;4.43;100.00;100565.50;6352478;22;45374;-82
2022/12/04 08:21:20;;;;;;;;;39.00;36.00;;;;;4.41;100.00;100548.75;6350986;22;45998;-83
2022/12/04 08:23:51;;;;;;;;;54.33;40.00;;;;;4.47;100.00;100554.25;6323779;22;45324;-81
2022/12/04 08:26:19;;;;;;;;;41.67;36.33;;;;;4.53;100.00;100559.72;6325379;22;45379;-81
2022/12/04 08:28:45;;;;;;;;;41.33;36.33;;;;;4.55;100.00;100549.25;6326174;22;45550;-82
2022/12/04 08:31:14;;;;;;;;;39.00;37.67;;;;;4.57;100.00;100553.72;6325560;22;46582;-81
2022/12/04 08:33:41;;;;;;;;;54.00;37.33;;;;;4.58;100.00;100557.25;6326881;22;45392;-81
2022/12/04 08:36:11;;;;;;;;;42.00;36.00;;;;;4.59;100.00;100554.69;6327717;22;45413;-80
2022/12/04 08:38:37;;;;;;;;;45.00;39.67;;;;;4.56;100.00;100549.28;6326519;22;45321;-81
2022/12/04 08:41:04;;;;;;;;;38.67;35.00;;;;;4.61;100.00;100557.38;6352184;22;46284;-82
2022/12/04 08:43:29;;;;;;;;;44.00;36.67;;;;;4.63;100.00;100552.16;6352129;22;45376;-81
2022/12/04 08:46:01;;;;;;;;;40.00;36.00;;;;;4.65;100.00;100556.63;6323849;22;45424;-80
2022/12/04 08:48:27;;;;;;;;;49.67;40.67;;;;;4.67;100.00;100554.94;6325396;22;45353;-81
2022/12/04 08:50:53;;;;;;;;;55.67;43.67;;;;;4.75;100.00;100565.75;6324681;22;47902;-81
2022/12/04 08:53:22;;;;;;;;;47.67;39.33;;;;;4.74;100.00;100566.59;6353784;22;45466;-82
2022/12/04 08:55:48;;;;;;;;;43.00;35.00;;;;;4.71;100.00;100571.75;6325829;22;45369;-82
2022/12/04 08:58:13;;;;;;;;;47.00;38.00;;;;;4.70;100.00;100562.06;6325948;22;45290;-82
2022/12/04 09:00:39;;;;;;;;;40.67;34.33;;;;;4.75;100.00;100576.28;6353309;22;45295;-82
2022/12/04 09:03:12;;;;;;;;;43.33;36.33;;;;;4.92;100.00;100585.66;6325059;22;45377;-81
2022/12/04 09:05:38;;;;;;;;;47.33;40.33;;;;;5.02;100.00;100581.59;6352587;22;45816;-82
2022/12/04 09:08:04;;;;;;;;;45.67;41.67;;;;;4.99;100.00;100573.59;6323356;22;44838;-81
2022/12/04 09:10:29;;;;;;;;;40.33;37.00;;;;;4.98;100.00;100572.69;6322343;22;45266;-81
2022/12/04 09:12:55;;;;;;;;;41.00;34.33;;;;;5.00;100.00;100573.63;6350565;22;44995;-83
2022/12/04 09:15:20;;;;;;;;;46.33;38.00;;;;;4.99;100.00;100560.44;6350851;22;45380;-82
2022/12/04 09:17:46;;;;;;;;;49.33;41.67;;;;;4.96;100.00;100571.75;6321911;22;45320;-82
2022/12/04 09:20:13;;;;;;;;;42.00;35.67;;;;;4.96;100.00;100563.84;6320866;22;45419;-82
2022/12/04 09:22:39;;;;;;;;;39.67;36.33;;;;;5.00;100.00;100575.38;6350848;22;45439;-82
2022/12/04 09:25:06;;;;;;;;;43.67;40.00;;;;;4.90;100.00;100565.38;6300202;22;44767;-83
2022/12/04 09:27:36;;;;;;;;;22.00;20.00;;;;;4.96;100.00;100579.66;6325878;22;45417;-82
2022/12/04 09:30:05;;;;;;;;;53.33;44.33;;;;;4.94;100.00;100577.81;6349577;22;45558;-83
2022/12/04 09:32:30;;;;;;;;;54.67;42.00;;;;;4.90;100.00;100568.00;6349595;22;45356;-82
2022/12/04 09:34:56;;;;;;;;;41.00;38.67;;;;;4.94;100.00;100565.53;6321766;22;45455;-82
2022/12/04 09:37:21;;;;;;;;;46.67;39.67;;;;;4.98;100.00;100558.63;6350198;22;45356;-82
2022/12/04 09:39:47;;;;;;;;;50.67;41.67;;;;;5.12;100.00;100567.00;6350283;22;45602;-82
2022/12/04 09:42:12;;;;;;;;;43.00;39.67;;;;;5.28;100.00;100564.00;6321306;22;45243;-82
2022/12/04 09:45:02;;;;;;;;;50.33;43.00;;;;;5.40;100.00;100574.97;6292829;22;45407;-83
2022/12/04 09:47:37;;;;;;;;;36.67;35.00;;;;;5.36;100.00;100573.06;6317875;22;44780;-84
2022/12/04 09:50:13;;;;;;;;;54.33;43.00;;;;;5.33;100.00;100572.06;6290764;22;46696;-82
2022/12/04 09:52:57;;;;;;;;;45.33;39.00;;;;;5.29;100.00;100568.47;6318683;22;45442;-83
2022/12/04 09:56:09;;;;;;;;;32.67;26.00;;;;;5.33;100.00;100578.25;6290660;22;45350;-83
2022/12/04 09:58:46;;;;;;;;;54.33;41.67;;;;;5.29;100.00;100573.72;6320313;22;45417;-83
2022/12/04 10:01:47;;;;;;;;;37.67;35.33;;;;;5.39;100.00;100577.53;6294026;22;47507;-83
2022/12/04 10:04:13;;;;;;;;;38.67;34.33;;;;;5.42;100.00;100569.75;6318591;22;45388;-83
2022/12/04 10:06:59;;;;;;;;;51.67;40.33;;;;;5.44;100.00;100564.53;6319849;22;45359;-82
2022/12/04 10:09:49;;;;;;;;;52.00;41.33;;;;;5.45;100.00;100566.28;6294966;22;45481;-83
2022/12/04 10:12:37;;;;;;;;;41.33;36.00;;;;;5.46;100.00;100553.16;6320569;22;46008;-83
2022/12/04 10:15:33;;;;;;;;;41.00;39.00;;;;;5.50;100.00;100573.50;6319237;22;45537;-82
2022/12/04 10:18:14;;;;;;;;;40.33;34.67;;;;;5.59;100.00;100564.97;6306605;22;45320;-82
2022/12/04 10:21:14;;;;;;;;;45.67;41.33;;;;;5.66;100.00;100556.44;6289455;22;45308;-83
2022/12/04 10:24:08;;;;;;;;;47.00;40.00;;;;;5.65;100.00;100554.63;6290134;22;46962;-83
2022/12/04 10:26:45;;;;;;;;;47.00;39.67;;;;;5.63;100.00;100553.69;6292989;22;45208;-82
2022/12/04 10:29:33;;;;;;;;;51.33;41.00;;;;;5.55;100.00;100558.72;6316665;22;45384;-82
2022/12/04 10:32:18;;;;;;;;;46.00;40.67;;;;;5.52;100.00;100560.38;6319241;22;45839;-82
2022/12/04 10:34:47;;;;;;;;;43.00;39.33;;;;;5.40;100.00;100553.84;6291469;22;46970;-81
2022/12/04 10:37:13;;;;;;;;;47.00;39.67;;;;;5.44;100.00;100553.97;6291336;22;45192;-82
2022/12/04 10:39:56;;;;;;;;;42.67;41.00;;;;;5.48;100.00;100551.47;6293309;22;45414;-83
2022/12/04 10:42:51;;;;;;;;;48.00;40.00;;;;;5.53;100.00;100547.22;6294232;22;45451;-82
2022/12/04 10:45:17;;;;;;;;;43.00;37.67;;;;;5.59;100.00;100538.59;6289688;22;48046;-82
2022/12/04 10:47:47;;;;;;;;;47.00;39.00;;;;;5.64;100.00;100554.59;6293578;22;44836;-83
2022/12/04 10:50:22;;;;;;;;;44.33;40.67;;;;;5.66;100.00;100553.78;6293342;22;44655;-82
2022/12/04 10:52:49;;;;;;;;;42.67;38.67;;;;;5.62;100.00;100538.72;6322530;22;45320;-82
2022/12/04 10:55:14;;;;;;;;;44.00;36.33;;;;;5.65;100.00;100546.72;6293100;22;45411;-82
2022/12/04 10:57:43;;;;;;;;;42.33;38.67;;;;;5.65;100.00;100553.72;6323319;22;45371;-83
2022/12/04 11:00:31;;;;;;;;;45.33;40.00;;;;;5.66;100.00;100555.53;6295209;22;45305;-81
2022/12/04 11:03:00;;;;;;;;;44.67;40.67;;;;;5.65;100.00;100559.91;6322456;22;45109;-83
2022/12/04 11:05:37;;;;;;;;;49.67;39.00;;;;;5.61;100.00;100547.47;6294553;22;46760;-82
2022/12/04 11:08:05;;;;;;;;;54.33;41.00;;;;;5.65;100.00;100546.72;6319397;22;45234;-82
2022/12/04 11:10:41;;;;;;;;;41.67;38.67;;;;;5.67;100.00;100542.38;6325473;22;45365;-82
2022/12/04 11:13:17;;;;;;;;;50.00;40.67;;;;;5.74;100.00;100544.38;6298344;22;44929;-82
2022/12/04 11:15:49;;;;;;;;;55.67;42.00;;;;;5.78;100.00;100535.69;6323038;22;47719;-83
2022/12/04 11:18:19;;;;;;;;;49.33;42.00;;;;;5.80;100.00;100549.81;6296810;22;45273;-82
2022/12/04 11:20:53;;;;;;;;;51.00;40.33;;;;;5.79;100.00;100545.38;6294595;22;45349;-82
2022/12/04 11:23:20;;;;;;;;;54.33;43.67;;;;;5.72;100.00;100538.16;6296650;22;45589;-82
2022/12/04 11:25:49;;;;;;;;;42.33;39.67;;;;;5.68;100.00;100543.28;6319265;22;46979;-82
2022/12/04 11:28:20;;;;;;;;;43.67;34.67;;;;;5.69;100.00;100539.78;6294546;22;45352;-82
2022/12/04 11:30:50;;;;;;;;;54.33;43.67;;;;;5.67;100.00;100538.84;6292205;22;45227;-82
2022/12/04 11:33:39;;;;;;;;;32.33;26.33;;;;;5.59;100.00;100534.25;6318995;22;45346;-82
2022/12/04 11:36:33;;;;;;;;;47.67;42.33;;;;;5.60;100.00;100533.38;6298195;22;46987;-83
2022/12/04 11:39:04;;;;;;;;;47.00;41.67;;;;;5.65;100.00;100543.19;6318808;22;45583;-82
2022/12/04 11:41:32;;;;;;;;;57.00;42.33;;;;;5.67;100.00;100542.38;6298082;22;44841;-82
2022/12/04 11:43:58;;;;;;;;;49.33;40.33;;;;;5.68;100.00;100528.34;6325364;22;45365;-81
2022/12/04 11:46:30;;;;;;;;;47.33;42.00;;;;;5.81;100.00;100527.84;6321498;22;46887;-82
2022/12/04 11:48:56;;;;;;;;;41.33;38.00;;;;;5.82;100.00;100512.94;6297625;22;45254;-82
2022/12/04 11:51:31;;;;;;;;;50.00;41.33;;;;;5.95;100.00;100524.75;6296240;22;44825;-82
2022/12/04 11:54:13;;;;;;;;;45.00;38.00;;;;;5.97;100.00;100515.16;6322923;22;44835;-82
2022/12/04 11:56:44;;;;;;;;;44.67;38.33;;;;;5.94;100.00;100508.00;6319444;22;45964;-82
2022/12/04 11:59:29;;;;;;;;;53.67;42.00;;;;;5.94;100.00;100505.38;6317922;22;45435;-82
2022/12/04 12:02:19;;;;;;;;;46.67;40.33;;;;;5.95;100.00;100501.00;6291210;22;45408;-84